Time;durP1;ratioP1;P1;durP2;ratioP2;P2;SDS_P1;SDS_P2;PMS_P1;PMS_P2;Temp;Humidity;BMP_temperature;BMP_pressure;BME280_temperature;BME280_humidity;BME280_pressure;Samples;Min_cycle;Max_cycle;Signal;HPM_P1;HPM_P2
2021/06/19 00:00:55;;;;;;;11.45;4.03;;;;;;;21.36;68.56;101112.41;5063714;28;20105;-66
2021/06/19 00:03:21;;;;;;;12.85;4.15;;;;;;;21.32;69.18;101117.03;5065901;28;20025;-66
2021/06/19 00:05:46;;;;;;;10.27;3.97;;;;;;;21.22;69.73;101110.22;5065114;28;20028;-66
2021/06/19 00:08:12;;;;;;;13.60;4.20;;;;;;;21.20;69.49;101112.97;5064474;28;20017;-66
2021/06/19 00:10:39;;;;;;;13.95;4.18;;;;;;;21.18;69.81;101120.19;5065877;28;20040;-66
2021/06/19 00:13:05;;;;;;;10.48;4.03;;;;;;;21.17;70.23;101118.47;5063413;28;20025;-66
2021/06/19 00:15:30;;;;;;;12.25;4.22;;;;;;;21.14;70.39;101123.03;5066555;28;20537;-66
2021/06/19 00:17:56;;;;;;;14.90;4.40;;;;;;;21.09;70.61;101117.84;5063688;28;20032;-66
2021/06/19 00:20:24;;;;;;;12.93;4.40;;;;;;;21.07;70.52;101125.97;5065573;28;20136;-66
2021/06/19 00:22:50;;;;;;;12.30;4.13;;;;;;;21.04;71.56;101127.84;5064383;28;20017;-72
2021/06/19 00:25:17;;;;;;;11.98;4.38;;;;;;;20.97;71.79;101126.31;5064826;28;20032;-75
2021/06/19 00:27:43;;;;;;;11.85;4.13;;;;;;;20.92;72.13;101131.84;5064050;28;20095;-72
2021/06/19 00:30:11;;;;;;;13.35;4.47;;;;;;;20.86;72.15;101135.63;5063444;28;20029;-72
2021/06/19 00:32:36;;;;;;;12.55;4.40;;;;;;;20.81;73.50;101132.22;5066109;28;20059;-73
2021/06/19 00:35:04;;;;;;;13.88;4.38;;;;;;;20.73;73.47;101127.09;5062816;28;20116;-72
2021/06/19 00:37:30;;;;;;;14.32;4.78;;;;;;;20.72;73.43;101136.09;5059097;28;20029;-72
2021/06/19 00:39:56;;;;;;;12.68;4.35;;;;;;;20.70;73.71;101129.03;5066108;28;20027;-73
2021/06/19 00:42:22;;;;;;;12.93;4.53;;;;;;;20.68;74.08;101130.91;5063960;28;20089;-72
2021/06/19 00:44:48;;;;;;;10.88;4.30;;;;;;;20.63;74.66;101122.06;5064526;28;20039;-72
2021/06/19 00:47:14;;;;;;;14.30;4.70;;;;;;;20.57;74.73;101119.59;5064936;28;20280;-72
2021/06/19 00:49:39;;;;;;;13.75;4.50;;;;;;;20.57;75.63;101128.50;5063252;28;20387;-72
2021/06/19 00:52:05;;;;;;;15.50;4.80;;;;;;;20.56;74.88;101129.44;5065969;28;20016;-68
2021/06/19 00:54:30;;;;;;;14.77;4.82;;;;;;;20.51;75.22;101134.09;5062826;28;20029;-72
2021/06/19 00:56:56;;;;;;;17.05;4.90;;;;;;;20.49;75.35;101136.81;5065669;28;20024;-67
2021/06/19 00:59:21;;;;;;;14.18;4.90;;;;;;;20.42;76.35;101140.63;5063693;28;20548;-67
2021/06/19 01:01:47;;;;;;;13.32;4.70;;;;;;;20.37;76.49;101143.47;5064096;28;20535;-71
2021/06/19 01:04:12;;;;;;;14.75;4.85;;;;;;;20.37;76.65;101143.47;5064349;28;20032;-71
2021/06/19 01:06:38;;;;;;;17.60;4.90;;;;;;;20.41;76.54;101154.09;5061802;28;20021;-70
2021/06/19 01:09:09;;;;;;;16.35;5.00;;;;;;;20.47;76.04;101154.78;5065592;28;20021;-69
2021/06/19 01:11:39;;;;;;;14.43;5.07;;;;;;;20.44;76.41;101152.19;5058545;28;20044;-68
2021/06/19 01:14:06;;;;;;;14.90;4.75;;;;;;;20.38;77.16;101153.25;5065450;28;20036;-68
2021/06/19 01:16:32;;;;;;;14.98;5.10;;;;;;;20.40;77.01;101153.22;5062308;28;20396;-68
2021/06/19 01:18:57;;;;;;;16.42;5.35;;;;;;;20.39;77.28;101148.78;5065540;28;20031;-70
2021/06/19 01:21:29;;;;;;;14.35;5.10;;;;;;;20.38;77.11;101147.03;5063153;28;20036;-68
2021/06/19 01:23:55;;;;;;;16.13;5.30;;;;;;;20.37;78.10;101146.16;5065056;28;20035;-71
2021/06/19 01:26:23;;;;;;;15.27;5.28;;;;;;;20.43;77.57;101147.78;5063217;28;20382;-68
2021/06/19 01:28:50;;;;;;;16.08;5.32;;;;;;;20.40;77.73;101146.97;5063808;28;20025;-71
2021/06/19 01:31:16;;;;;;;18.00;5.00;;;;;;;20.38;78.26;101144.34;5063670;28;20032;-69
2021/06/19 01:33:44;;;;;;;15.43;5.13;;;;;;;20.35;78.13;101147.13;5062647;28;20040;-71
2021/06/19 01:36:10;;;;;;;15.65;5.20;;;;;;;20.27;78.40;101130.38;5064271;28;20056;-72
2021/06/19 01:38:45;;;;;;;17.30;5.55;;;;;;;20.20;78.14;101135.06;5062086;28;20025;-71
2021/06/19 01:41:14;;;;;;;16.92;5.60;;;;;;;20.15;79.13;101137.00;5064137;28;20413;-68
2021/06/19 01:43:41;;;;;;;15.02;5.20;;;;;;;20.12;79.97;101137.97;5062150;28;20063;-71
2021/06/19 01:46:08;;;;;;;15.73;5.22;;;;;;;20.09;80.28;101138.06;5064807;28;20033;-66
2021/06/19 01:48:33;;;;;;;17.73;5.30;;;;;;;20.07;79.99;101134.56;5061481;28;20029;-66
2021/06/19 01:50:58;;;;;;;16.42;5.60;;;;;;;20.10;79.48;101129.09;5064490;28;20056;-66
2021/06/19 01:53:24;;;;;;;16.25;5.82;;;;;;;20.12;79.66;101132.59;5061341;28;20039;-66
2021/06/19 01:55:49;;;;;;;16.23;5.63;;;;;;;20.07;79.91;101134.56;5063309;28;20023;-66
2021/06/19 01:58:14;;;;;;;15.13;5.57;;;;;;;20.01;80.85;101134.75;5063288;28;20028;-66
2021/06/19 02:00:40;;;;;;;16.30;5.65;;;;;;;19.97;81.01;101138.47;5062391;28;20070;-66
2021/06/19 02:03:07;;;;;;;18.58;5.97;;;;;;;19.96;81.48;101142.91;5064494;28;20029;-66
2021/06/19 02:05:32;;;;;;;16.75;5.88;;;;;;;19.93;81.99;101134.97;5061090;28;20025;-66
2021/06/19 02:08:00;;;;;;;17.20;5.80;;;;;;;19.93;81.80;101134.97;5064654;28;20379;-66
2021/06/19 02:10:28;;;;;;;16.65;5.45;;;;;;;19.88;82.05;101127.97;5061923;28;20047;-66
2021/06/19 02:12:54;;;;;;;18.33;5.88;;;;;;;19.91;82.36;101127.91;5063467;28;20095;-66
2021/06/19 02:15:20;;;;;;;17.33;5.93;;;;;;;19.79;83.63;101132.72;5063013;28;20032;-66
2021/06/19 02:17:46;;;;;;;16.73;6.10;;;;;;;19.84;83.22;101133.44;5062068;28;20013;-66
2021/06/19 02:20:13;;;;;;;16.92;6.10;;;;;;;19.78;83.60;101130.94;5063641;28;20046;-66
2021/06/19 02:22:39;;;;;;;18.52;5.88;;;;;;;19.75;84.39;101141.75;5061648;28;20072;-66
2021/06/19 02:25:13;;;;;;;17.80;6.07;;;;;;;19.69;84.53;101137.44;5064502;28;20064;-66
2021/06/19 02:27:52;;;;;;;16.98;6.28;;;;;;;19.68;85.13;101140.16;5058529;28;20032;-66
2021/06/19 02:30:20;;;;;;;18.27;6.15;;;;;;;19.74;85.16;101136.44;5062442;28;20040;-66
2021/06/19 02:32:46;;;;;;;17.40;6.35;;;;;;;19.74;84.95;101134.59;5062319;28;20021;-66
2021/06/19 02:35:12;;;;;;;18.25;6.15;;;;;;;19.75;85.24;101143.56;5062335;28;20098;-66
2021/06/19 02:37:37;;;;;;;17.58;6.25;;;;;;;19.82;84.03;101140.66;5061043;28;20107;-66
2021/06/19 02:40:05;;;;;;;17.25;6.50;;;;;;;19.69;85.72;101149.97;5064662;28;20062;-66
2021/06/19 02:42:30;;;;;;;19.48;6.60;;;;;;;19.65;85.84;101148.28;5056864;28;20108;-66
2021/06/19 02:44:56;;;;;;;18.08;6.75;;;;;;;19.63;86.20;101155.47;5063513;28;20451;-66
2021/06/19 02:47:21;;;;;;;18.27;6.63;;;;;;;19.57;86.23;101151.19;5062098;28;20028;-66
2021/06/19 02:49:46;;;;;;;18.42;6.78;;;;;;;19.55;86.54;101152.16;5062090;28;20033;-66
2021/06/19 02:52:12;;;;;;;20.33;6.65;;;;;;;19.49;87.08;101155.88;5063316;28;20086;-66
2021/06/19 02:54:40;;;;;;;18.23;6.80;;;;;;;19.38;88.42;101150.81;5060998;28;20103;-66
2021/06/19 02:57:09;;;;;;;19.50;7.22;;;;;;;19.32;89.30;101159.94;5064185;28;20180;-66
2021/06/19 02:59:35;;;;;;;20.02;7.65;;;;;;;19.29;89.46;101156.44;5060623;28;20170;-66
2021/06/19 03:02:00;;;;;;;18.88;7.55;;;;;;;19.26;89.10;101156.53;5056933;28;20029;-66
2021/06/19 03:04:26;;;;;;;20.30;8.18;;;;;;;19.16;89.55;101164.81;5063091;28;20343;-66
2021/06/19 03:06:51;;;;;;;18.95;7.60;;;;;;;19.11;90.61;101166.72;5062019;28;20028;-66
2021/06/19 03:09:16;;;;;;;19.88;8.10;;;;;;;19.06;91.22;101179.38;5062457;28;20586;-66
2021/06/19 03:11:42;;;;;;;19.13;7.88;;;;;;;19.04;91.28;101189.22;5062811;28;20503;-66
2021/06/19 03:14:07;;;;;;;20.58;8.55;;;;;;;19.08;90.72;101177.53;5061073;28;20033;-66
2021/06/19 03:16:35;;;;;;;20.20;8.55;;;;;;;19.14;89.42;101174.66;5064122;28;20472;-66
2021/06/19 03:19:01;;;;;;;20.67;8.73;;;;;;;19.19;88.29;101173.69;5060346;28;20021;-66
2021/06/19 03:21:26;;;;;;;20.52;8.85;;;;;;;19.13;88.70;101178.28;5063347;28;20032;-66
2021/06/19 03:23:51;;;;;;;20.55;9.10;;;;;;;19.03;89.87;101184.78;5061564;28;20082;-66
2021/06/19 03:26:16;;;;;;;20.23;8.77;;;;;;;18.94;90.39;101187.69;5061898;28;20116;-66
2021/06/19 03:28:42;;;;;;;23.52;8.98;;;;;;;18.89;91.08;101184.28;5063116;28;20020;-66
2021/06/19 03:31:07;;;;;;;21.55;9.70;;;;;;;18.82;91.55;101184.38;5064337;28;20040;-66
2021/06/19 03:33:32;;;;;;;21.75;8.93;;;;;;;18.84;91.24;101180.78;5067485;28;20472;-66
2021/06/19 03:35:58;;;;;;;20.17;8.88;;;;;;;18.79;91.76;101194.28;5064460;28;20453;-72
2021/06/19 03:38:23;;;;;;;20.75;8.80;;;;;;;18.76;91.90;101194.38;5065021;28;20021;-72
2021/06/19 03:40:48;;;;;;;20.27;8.40;;;;;;;18.75;91.58;101193.47;5065486;28;20078;-72
2021/06/19 03:43:14;;;;;;;20.85;9.10;;;;;;;18.72;92.36;101193.53;5065091;28;20025;-73
2021/06/19 03:45:39;;;;;;;20.83;9.07;;;;;;;18.65;93.20;101194.59;5066772;28;20027;-72
2021/06/19 03:48:06;;;;;;;19.80;8.77;;;;;;;18.64;93.64;101195.53;5063662;28;20033;-71
2021/06/19 03:50:32;;;;;;;20.02;8.93;;;;;;;18.62;94.08;101203.63;5059592;28;20493;-72
2021/06/19 03:52:59;;;;;;;21.83;8.82;;;;;;;18.60;94.69;101193.84;5066856;28;20028;-73
2021/06/19 03:55:26;;;;;;;21.58;9.27;;;;;;;18.60;94.77;101204.56;5064991;28;20116;-70
2021/06/19 03:57:53;;;;;;;21.83;9.07;;;;;;;18.63;94.49;101199.13;5066143;28;20074;-72
2021/06/19 04:00:19;;;;;;;21.83;9.25;;;;;;;18.60;94.82;101205.44;5065227;28;20078;-73
2021/06/19 04:02:45;;;;;;;21.75;8.85;;;;;;;18.62;94.45;101217.00;5064643;28;20032;-72
2021/06/19 04:05:12;;;;;;;21.42;9.18;;;;;;;18.63;95.13;101220.56;5066261;28;20095;-70
2021/06/19 04:07:38;;;;;;;20.38;9.10;;;;;;;18.59;93.56;101234.91;5063417;28;20033;-69
2021/06/19 04:10:05;;;;;;;20.77;9.13;;;;;;;18.58;93.63;101226.00;5067045;28;20032;-70
2021/06/19 04:12:30;;;;;;;20.27;8.65;;;;;;;18.58;93.69;101231.38;5063281;28;20040;-70
2021/06/19 04:14:55;;;;;;;20.85;8.95;;;;;;;18.58;92.62;101238.50;5065782;28;20117;-71
2021/06/19 04:17:21;;;;;;;22.10;8.90;;;;;;;18.57;92.16;101234.94;5064810;28;20060;-70
2021/06/19 04:19:47;;;;;;;20.83;8.82;;;;;;;18.53;91.84;101241.28;5064650;28;20029;-72
2021/06/19 04:22:14;;;;;;;21.02;8.95;;;;;;;18.52;92.55;101234.16;5065633;28;20052;-71
2021/06/19 04:24:40;;;;;;;21.00;9.50;;;;;;;18.52;92.36;101246.69;5063810;28;20029;-72
2021/06/19 04:27:14;;;;;;;21.55;10.80;;;;;;;18.58;91.79;101259.91;5066540;28;20097;-66
2021/06/19 04:29:40;;;;;;;21.52;11.07;;;;;;;18.57;92.52;101252.81;5060475;28;20132;-66
2021/06/19 04:32:06;;;;;;;23.02;12.57;;;;;;;18.60;91.55;101261.66;5066418;28;20024;-66
2021/06/19 04:34:32;;;;;;;22.58;11.95;;;;;;;18.62;91.13;101259.84;5058869;28;20029;-66
2021/06/19 04:36:57;;;;;;;22.95;11.95;;;;;;;18.66;90.82;101262.44;5065572;28;20095;-66
2021/06/19 04:39:22;;;;;;;23.15;12.35;;;;;;;18.74;89.82;101256.00;5064538;28;20033;-66
2021/06/19 04:47:20;;;;;;;22.77;12.07;;;;;;;18.84;87.18;101283.41;5062283;28;20415;-65
2021/06/19 04:49:45;;;;;;;23.05;12.40;;;;;;;18.78;87.79;101288.94;5061612;28;20044;-66
2021/06/19 04:52:10;;;;;;;22.85;12.18;;;;;;;18.79;86.26;101286.22;5063528;28;20028;-66
2021/06/19 04:54:39;;;;;;;22.80;12.15;;;;;;;18.81;86.52;101295.09;5060348;28;20045;-65
2021/06/19 04:57:06;;;;;;;23.40;12.15;;;;;;;18.86;86.62;101291.41;5056402;28;20028;-66
2021/06/19 04:59:32;;;;;;;24.13;11.90;;;;;;;18.91;86.04;101290.44;5063835;28;20055;-65
2021/06/19 05:01:57;;;;;;;23.30;12.52;;;;;;;18.96;83.55;101303.72;5060618;28;20041;-65
2021/06/19 05:04:23;;;;;;;23.48;12.50;;;;;;;18.86;84.64;101297.72;5062251;28;20056;-65
2021/06/19 05:06:48;;;;;;;23.08;11.90;;;;;;;18.79;85.64;101306.75;5062159;28;20094;-66
2021/06/19 05:09:13;;;;;;;23.38;12.73;;;;;;;18.63;87.14;101293.69;5060863;28;20033;-66
2021/06/19 05:11:39;;;;;;;22.75;13.20;;;;;;;18.61;87.27;101291.97;5062772;28;20091;-67
2021/06/19 05:14:04;;;;;;;23.67;12.60;;;;;;;18.55;88.40;101302.81;5060260;28;20056;-72
2021/06/19 05:16:29;;;;;;;24.05;13.73;;;;;;;18.57;87.75;101309.03;5062808;28;20047;-66
2021/06/19 05:18:55;;;;;;;23.30;13.63;;;;;;;18.53;88.43;101302.84;5060786;28;20426;-66
2021/06/19 05:21:20;;;;;;;24.52;13.52;;;;;;;18.55;87.67;101310.84;5060941;28;20059;-66
2021/06/19 05:23:45;;;;;;;24.15;14.15;;;;;;;18.56;88.52;101321.53;5064437;28;20023;-66
2021/06/19 05:26:11;;;;;;;24.30;14.30;;;;;;;18.70;88.40;101323.00;5062344;28;20025;-66
2021/06/19 05:28:36;;;;;;;25.67;14.95;;;;;;;18.97;86.12;101326.91;5065709;28;20467;-68
2021/06/19 05:31:03;;;;;;;25.17;14.75;;;;;;;19.11;85.16;101331.97;5061781;28;20052;-68
2021/06/19 05:33:28;;;;;;;25.27;15.40;;;;;;;19.12;84.35;101331.03;5064614;28;20025;-66
2021/06/19 05:35:54;;;;;;;26.15;15.40;;;;;;;19.24;84.65;101335.25;5062972;28;20028;-66
2021/06/19 05:38:19;;;;;;;25.70;15.38;;;;;;;19.34;83.21;101334.09;5061578;28;20502;-66
2021/06/19 05:40:46;;;;;;;24.95;14.35;;;;;;;19.38;81.96;101341.13;5064451;28;20070;-66
2021/06/19 05:43:11;;;;;;;24.02;14.43;;;;;;;19.36;81.42;101342.09;5062110;28;20029;-68
2021/06/19 05:45:36;;;;;;;23.35;13.68;;;;;;;19.20;82.85;101341.59;5065056;28;20486;-72
2021/06/19 05:48:02;;;;;;;23.20;12.48;;;;;;;19.23;81.97;101338.81;5061651;28;20487;-66
2021/06/19 05:50:27;;;;;;;22.00;12.50;;;;;;;19.10;82.62;101328.38;5063924;28;20032;-67
2021/06/19 05:52:52;;;;;;;22.73;11.70;;;;;;;19.10;81.32;101339.09;5062183;28;20055;-67
2021/06/19 05:55:18;;;;;;;23.35;12.88;;;;;;;19.09;82.50;101332.00;5058111;28;20032;-70
2021/06/19 05:57:44;;;;;;;22.77;12.63;;;;;;;19.17;80.48;101335.34;5060816;28;20020;-69
2021/06/19 06:00:10;;;;;;;22.60;12.85;;;;;;;19.10;80.09;101328.38;5059549;28;20038;-71
2021/06/19 06:02:35;;;;;;;22.83;12.70;;;;;;;19.09;82.48;101336.47;5066079;28;20025;-67
2021/06/19 06:05:00;;;;;;;23.83;13.13;;;;;;;19.23;81.82;101328.09;5060656;28;20029;-67
2021/06/19 06:07:26;;;;;;;22.98;11.88;;;;;;;19.40;80.93;101336.63;5057219;28;20158;-67
2021/06/19 06:09:51;;;;;;;23.58;12.45;;;;;;;19.69;79.83;101346.59;5063359;28;20408;-66
2021/06/19 06:12:17;;;;;;;24.08;15.15;;;;;;;19.85;76.49;101360.53;5060099;28;20048;-66
2021/06/19 06:14:42;;;;;;;25.10;16.17;;;;;;;19.77;75.81;101349.06;5061225;28;20593;-68
2021/06/19 06:17:07;;;;;;;24.65;15.57;;;;;;;19.69;75.97;101351.09;5059548;28;20021;-68
2021/06/19 06:19:33;;;;;;;23.58;14.45;;;;;;;19.63;74.49;101367.31;5058862;28;20480;-67
2021/06/19 06:21:58;;;;;;;23.98;14.85;;;;;;;19.52;77.30;101370.28;5061753;28;20029;-66
2021/06/19 06:24:24;;;;;;;23.40;13.68;;;;;;;19.66;77.35;101372.63;5057916;28;20520;-68
2021/06/19 06:26:49;;;;;;;21.90;12.27;;;;;;;19.75;76.67;101371.50;5061129;28;20091;-67
2021/06/19 06:29:15;;;;;;;22.30;12.27;;;;;;;19.79;76.45;101360.69;5060921;28;20028;-71
2021/06/19 06:31:40;;;;;;;23.23;11.55;;;;;;;19.90;75.84;101364.91;5063883;28;20056;-70
2021/06/19 06:34:05;;;;;;;21.45;10.30;;;;;;;19.85;73.73;101370.38;5060874;28;20032;-67
2021/06/19 06:36:31;;;;;;;21.25;10.57;;;;;;;19.81;73.35;101372.25;5062892;28;20047;-67
2021/06/19 06:39:03;;;;;;;21.15;9.80;;;;;;;19.79;73.06;101374.09;5061427;28;20044;-70
2021/06/19 06:41:28;;;;;;;20.33;9.27;;;;;;;19.88;72.81;101374.78;5062549;28;20032;-71
2021/06/19 06:43:53;;;;;;;19.55;9.35;;;;;;;19.97;71.80;101374.53;5062687;28;20029;-71
2021/06/19 06:46:19;;;;;;;20.48;9.38;;;;;;;20.00;71.75;101369.97;5061473;28;20242;-65
2021/06/19 06:48:44;;;;;;;20.40;9.30;;;;;;;20.09;72.74;101373.34;5063965;28;20401;-65
2021/06/19 06:51:10;;;;;;;19.65;9.65;;;;;;;20.14;70.97;101372.28;5060937;28;20029;-72
2021/06/19 06:53:35;;;;;;;19.73;9.10;;;;;;;20.10;71.01;101375.97;5063916;28;20021;-70
2021/06/19 06:56:00;;;;;;;21.45;10.48;;;;;;;20.06;70.74;101374.28;5061552;28;20035;-67
2021/06/19 06:58:26;;;;;;;21.58;10.60;;;;;;;20.17;70.56;101364.16;5062643;28;20036;-74
2021/06/19 07:00:51;;;;;;;21.02;10.52;;;;;;;20.24;70.62;101364.88;5063202;28;20460;-73
2021/06/19 07:03:16;;;;;;;21.42;12.70;;;;;;;20.33;71.46;101369.09;5060156;28;20484;-72
2021/06/19 07:05:42;;;;;;;23.88;14.95;;;;;;;20.37;69.93;101376.13;5067310;28;20025;-70
2021/06/19 07:08:07;;;;;;;24.17;16.15;;;;;;;20.28;71.60;101368.34;5064574;28;20027;-71
2021/06/19 07:10:32;;;;;;;27.20;19.35;;;;;;;20.20;71.52;101372.13;5067465;28;20993;-72
2021/06/19 07:12:58;;;;;;;28.05;19.65;;;;;;;20.18;71.06;101379.34;5065489;28;20071;-73
2021/06/19 07:15:23;;;;;;;27.05;19.52;;;;;;;20.13;71.12;101381.25;5065718;28;20048;-72
2021/06/19 07:17:49;;;;;;;27.15;20.38;;;;;;;19.95;70.77;101381.72;5067264;28;20043;-72
2021/06/19 07:20:16;;;;;;;26.30;17.35;;;;;;;20.15;69.71;101374.06;5064441;28;20021;-72
2021/06/19 07:22:43;;;;;;;26.23;18.63;;;;;;;20.55;69.00;101380.97;5068028;28;20028;-72
2021/06/19 07:25:09;;;;;;;28.30;19.55;;;;;;;20.78;69.67;101378.56;5065404;28;20021;-73
2021/06/19 07:27:35;;;;;;;26.90;19.33;;;;;;;20.75;69.53;101390.31;5067138;28;20063;-73
2021/06/19 07:30:01;;;;;;;28.52;21.35;;;;;;;20.70;67.51;101392.22;5065013;28;20071;-73
2021/06/19 07:32:26;;;;;;;27.35;19.63;;;;;;;20.80;68.02;101388.34;5065939;28;20115;-65
2021/06/19 07:34:52;;;;;;;27.88;20.95;;;;;;;20.82;66.67;101394.53;5066299;28;20024;-65
2021/06/19 07:37:17;;;;;;;28.00;21.17;;;;;;;20.54;67.75;101403.38;5064296;28;20036;-64
2021/06/19 07:39:43;;;;;;;29.48;21.98;;;;;;;20.39;69.23;101395.78;5067541;28;20024;-64
2021/06/19 07:42:09;;;;;;;26.80;19.40;;;;;;;20.42;68.72;101398.38;5059678;28;20025;-64
2021/06/19 07:44:34;;;;;;;28.13;19.90;;;;;;;20.45;69.15;101400.09;5066588;28;20017;-64
2021/06/19 07:46:59;;;;;;;27.92;19.85;;;;;;;20.43;69.12;101400.13;5065552;28;20024;-65
2021/06/19 07:49:26;;;;;;;28.45;20.30;;;;;;;20.65;68.19;101405.78;5065287;28;20380;-65
2021/06/19 07:51:51;;;;;;;27.30;18.73;;;;;;;20.82;66.83;101404.41;5066163;28;20082;-64
2021/06/19 07:54:17;;;;;;;26.60;18.40;;;;;;;20.67;66.33;101406.63;5063857;28;20511;-64
2021/06/19 07:56:42;;;;;;;27.20;19.33;;;;;;;20.70;67.51;101408.34;5066093;28;20081;-64
2021/06/19 07:59:07;;;;;;;27.85;20.15;;;;;;;20.58;67.16;101422.13;5063609;28;20032;-64
2021/06/19 08:01:33;;;;;;;26.33;19.90;;;;;;;20.65;67.96;101424.56;5066447;28;20095;-65
2021/06/19 08:03:58;;;;;;;27.70;21.10;;;;;;;20.61;67.91;101419.34;5063991;28;20114;-64
2021/06/19 08:06:23;;;;;;;27.50;20.30;;;;;;;20.59;67.97;101426.53;5064739;28;20036;-65
2021/06/19 08:08:49;;;;;;;29.52;20.63;;;;;;;20.53;67.99;101416.84;5065413;28;20028;-65
2021/06/19 08:11:14;;;;;;;27.30;21.02;;;;;;;20.59;68.04;101416.69;5063636;28;20025;-65
2021/06/19 08:13:40;;;;;;;26.92;19.35;;;;;;;20.74;67.60;101410.03;5066771;28;20539;-65
2021/06/19 08:16:05;;;;;;;26.40;19.60;;;;;;;20.85;66.80;101407.00;5062991;28;20485;-65
2021/06/19 08:18:32;;;;;;;29.60;19.85;;;;;;;20.93;67.44;101415.72;5066108;28;20475;-65
2021/06/19 08:20:57;;;;;;;28.13;21.02;;;;;;;20.85;66.69;101417.75;5064553;28;20173;-65
2021/06/19 08:23:22;;;;;;;29.63;21.00;;;;;;;20.71;66.43;101432.47;5064644;28;20029;-64
2021/06/19 08:25:48;;;;;;;28.90;21.35;;;;;;;20.67;68.50;101427.25;5065656;28;20027;-65
2021/06/19 08:28:13;;;;;;;29.42;23.17;;;;;;;20.53;67.64;101431.19;5063478;28;20032;-65
2021/06/19 08:30:39;;;;;;;31.40;25.05;;;;;;;20.37;68.59;101432.50;5066452;28;20035;-65
2021/06/19 08:33:04;;;;;;;30.98;25.15;;;;;;;19.98;68.81;101429.94;5063676;28;20399;-65
2021/06/19 08:35:30;;;;;;;32.50;25.75;;;;;;;20.00;70.15;101433.50;5065671;28;20494;-65
2021/06/19 08:37:55;;;;;;;32.35;24.77;;;;;;;20.16;68.50;101439.34;5064368;28;20438;-65
2021/06/19 08:40:20;;;;;;;31.85;25.33;;;;;;;20.00;71.68;101441.53;5064290;28;20040;-64
2021/06/19 08:42:46;;;;;;;30.48;24.88;;;;;;;19.89;70.32;101443.59;5065486;28;20032;-65
2021/06/19 08:45:12;;;;;;;29.83;23.55;;;;;;;19.71;70.73;101443.09;5062848;28;20117;-64
2021/06/19 08:47:37;;;;;;;29.92;22.65;;;;;;;19.42;73.35;101436.63;5058783;28;20116;-64
2021/06/19 08:50:04;;;;;;;27.98;19.45;;;;;;;19.29;73.15;101440.50;5065287;28;20085;-64
2021/06/19 08:52:29;;;;;;;27.50;18.35;;;;;;;19.39;72.36;101441.19;5063479;28;20538;-64
2021/06/19 08:54:54;;;;;;;26.58;19.05;;;;;;;19.58;72.33;101441.63;5064570;28;20116;-64
2021/06/19 08:57:20;;;;;;;27.92;18.70;;;;;;;19.63;72.90;101437.94;5064567;28;20021;-64
2021/06/19 08:59:48;;;;;;;24.13;15.68;;;;;;;19.95;71.49;101438.06;5063052;28;20047;-64
2021/06/19 09:02:14;;;;;;;22.73;13.30;;;;;;;20.18;68.16;101443.75;5065699;28;20127;-64
2021/06/19 09:05:00;;;;;;;22.85;12.82;;;;;;;20.30;68.77;101436.28;5062222;28;20037;-64
2021/06/19 09:07:45;;;;;;;23.13;12.73;;;;;;;20.42;67.67;101446.69;5062481;28;20025;-64
2021/06/19 09:10:20;;;;;;;21.98;11.43;;;;;;;20.59;67.04;101448.91;5058261;28;20435;-64
2021/06/19 09:13:07;;;;;;;21.58;11.90;;;;;;;20.33;67.05;101455.00;5059480;28;20044;-64
2021/06/19 09:15:54;;;;;;;21.90;11.52;;;;;;;20.58;65.88;101440.91;5062646;28;20041;-64
2021/06/19 09:18:27;;;;;;;21.75;11.48;;;;;;;20.79;65.22;101440.31;5060457;28;20025;-70
2021/06/19 09:21:02;;;;;;;22.67;12.73;;;;;;;21.04;64.51;101432.44;5064102;28;20021;-69
2021/06/19 09:23:36;;;;;;;23.15;12.90;;;;;;;20.99;65.41;101433.50;5064118;28;20072;-70
2021/06/19 09:26:19;;;;;;;22.45;12.70;;;;;;;20.87;64.57;101430.22;5062626;28;20056;-71
2021/06/19 09:28:57;;;;;;;23.15;13.45;;;;;;;20.88;66.10;101423.94;5058680;28;20036;-69
2021/06/19 09:31:44;;;;;;;22.35;11.70;;;;;;;20.92;64.88;101424.72;5063665;28;20420;-67
2021/06/19 09:34:14;;;;;;;23.67;12.73;;;;;;;20.80;64.84;101420.59;5057616;28;20027;-67
2021/06/19 09:36:41;;;;;;;22.42;12.00;;;;;;;20.88;66.36;101425.72;5057910;28;20024;-68
2021/06/19 09:39:09;;;;;;;23.15;13.32;;;;;;;20.81;64.36;101429.50;5065264;28;20126;-67
2021/06/19 09:41:42;;;;;;;23.77;14.35;;;;;;;20.83;64.40;101431.25;5062198;28;20032;-67
2021/06/19 09:44:08;;;;;;;22.85;13.88;;;;;;;21.14;63.21;101419.56;5064833;28;20028;-66
2021/06/19 09:46:34;;;;;;;22.27;12.60;;;;;;;21.57;63.62;101428.13;5061904;28;20027;-66
2021/06/19 09:49:17;;;;;;;22.08;12.10;;;;;;;21.87;61.22;101420.88;5064006;28;20041;-68
2021/06/19 09:51:47;;;;;;;22.23;11.77;;;;;;;22.44;60.23;101418.91;5057879;28;20472;-71
2021/06/19 09:54:13;;;;;;;22.60;12.05;;;;;;;22.54;58.06;101416.75;5057938;28;20029;-66
2021/06/19 09:56:53;;;;;;;22.73;12.18;;;;;;;22.81;58.23;101414.81;5057302;28;20032;-67
2021/06/19 09:59:25;;;;;;;22.70;12.90;;;;;;;23.00;56.87;101410.56;5059317;28;20035;-66
2021/06/19 10:01:50;;;;;;;23.10;13.68;;;;;;;22.73;57.67;101416.06;5063786;28;20024;-68
2021/06/19 10:04:19;;;;;;;22.98;12.70;;;;;;;22.91;57.46;101404.59;5061741;28;20025;-71
2021/06/19 10:06:46;;;;;;;22.95;13.30;;;;;;;23.20;57.53;101399.00;5064296;28;20028;-71
2021/06/19 10:09:14;;;;;;;21.60;11.38;;;;;;;23.26;55.20;101404.19;5061343;28;20044;-67
2021/06/19 10:11:40;;;;;;;21.92;11.32;;;;;;;23.15;56.37;101410.88;5057323;28;20037;-72
2021/06/19 10:14:09;;;;;;;21.77;11.25;;;;;;;22.63;56.63;101419.09;5063886;28;20372;-73
2021/06/19 10:16:40;;;;;;;21.85;11.32;;;;;;;22.45;56.65;101412.59;5061878;28;20357;-70
2021/06/19 10:19:05;;;;;;;23.55;12.40;;;;;;;22.79;56.75;101395.16;5063882;28;20028;-73
2021/06/19 10:21:31;;;;;;;22.33;11.93;;;;;;;23.00;56.42;101405.16;5061841;28;20020;-73
2021/06/19 10:23:57;;;;;;;21.92;12.45;;;;;;;23.08;55.16;101408.44;5062878;28;20025;-72
2021/06/19 10:26:24;;;;;;;23.08;12.23;;;;;;;23.59;54.12;101407.31;5063298;28;20352;-73
2021/06/19 10:28:52;;;;;;;22.52;11.50;;;;;;;23.64;53.30;101405.28;5061696;28;20372;-73
2021/06/19 10:31:19;;;;;;;23.17;12.77;;;;;;;23.21;54.35;101404.38;5064088;28;20048;-72
2021/06/19 10:33:45;;;;;;;22.63;12.93;;;;;;;22.96;55.68;101410.69;5061087;28;20078;-73
2021/06/19 10:36:13;;;;;;;22.80;12.55;;;;;;;22.64;57.23;101411.88;5064498;28;20017;-71
2021/06/19 10:38:54;;;;;;;22.20;12.32;;;;;;;23.03;56.05;101407.75;5057036;28;20104;-66
2021/06/19 10:41:43;;;;;;;22.42;12.15;;;;;;;23.49;56.14;101395.16;5059074;28;20021;-63
2021/06/19 10:44:09;;;;;;;22.45;13.05;;;;;;;23.87;53.94;101391.78;5056324;28;20040;-64
2021/06/19 10:46:39;;;;;;;22.05;12.55;;;;;;;24.74;51.42;101392.44;5063582;28;20025;-64
2021/06/19 10:49:19;;;;;;;23.77;13.68;;;;;;;25.10;51.10;101382.69;5061404;28;20074;-73
2021/06/19 10:51:45;;;;;;;23.10;13.95;;;;;;;24.99;50.82;101385.88;5057598;28;20029;-65
2021/06/19 10:54:16;;;;;;;22.83;13.85;;;;;;;24.98;50.90;101379.59;5064149;28;20100;-65
2021/06/19 10:56:44;;;;;;;22.80;12.50;;;;;;;25.10;51.08;101377.28;5056720;28;20036;-65
2021/06/19 10:59:20;;;;;;;23.75;13.70;;;;;;;25.34;49.76;101375.25;5056636;28;20560;-67
2021/06/19 11:01:47;;;;;;;23.42;13.25;;;;;;;26.93;46.17;101372.38;5058075;28;20128;-68
2021/06/19 11:04:40;;;;;;;23.85;14.38;;;;;;;28.31;43.40;101365.19;5064054;28;20027;-65
2021/06/19 11:07:08;;;;;;;22.95;13.27;;;;;;;28.77;41.91;101362.31;5063373;28;20024;-71
2021/06/19 11:09:41;;;;;;;23.35;13.50;;;;;;;29.85;40.20;101366.13;5061072;28;20029;-70
2021/06/19 11:12:22;;;;;;;23.38;13.52;;;;;;;31.08;37.61;101363.78;5063531;28;20486;-66
2021/06/19 11:14:52;;;;;;;23.50;14.00;;;;;;;29.16;39.30;101357.09;5057819;28;20106;-65
2021/06/19 11:17:17;;;;;;;23.60;14.50;;;;;;;28.98;40.05;101351.88;5063431;28;20079;-65